Time;durP1;ratioP1;P1;durP2;ratioP2;P2;SDS_P1;SDS_P2;PMS_P1;PMS_P2;Temp;Humidity;BMP_temperature;BMP_pressure;BME280_temperature;BME280_humidity;BME280_pressure;Samples;Min_cycle;Max_cycle;Signal;HPM_P1;HPM_P2
2021/05/11 00:02:19;;;;;;;7.83;6.93;;;;;;;;;;5073722;28;20876;-72
2021/05/11 00:04:45;;;;;;;8.00;7.20;;;;;;;;;;5073718;28;20953;-72
2021/05/11 00:07:12;;;;;;;9.13;6.47;;;;;;;;;;5073966;28;20445;-73
2021/05/11 00:09:39;;;;;;;7.30;6.70;;;;;;;;;;5073420;28;20496;-73
2021/05/11 00:12:06;;;;;;;7.30;6.43;;;;;;;;;;5073315;28;20449;-72
2021/05/11 00:14:33;;;;;;;8.30;6.57;;;;;;;;;;5073555;28;20432;-72
2021/05/11 00:17:00;;;;;;;6.90;6.10;;;;;;;;;;5074083;28;20440;-73
2021/05/11 00:19:28;;;;;;;7.83;6.30;;;;;;;;;;5073657;28;20444;-72
2021/05/11 00:21:55;;;;;;;7.80;5.90;;;;;;;;;;5073132;28;20483;-73
2021/05/11 00:24:21;;;;;;;8.73;6.50;;;;;;;;;;5073464;28;20440;-73
2021/05/11 00:26:48;;;;;;;6.93;6.37;;;;;;;;;;5073447;28;20485;-73
2021/05/11 00:29:15;;;;;;;7.07;5.67;;;;;;;;;;5072905;28;20448;-73
2021/05/11 00:31:42;;;;;;;6.57;6.00;;;;;;;;;;5073203;28;20436;-73
2021/05/11 00:34:09;;;;;;;6.53;5.83;;;;;;;;;;5073891;28;20432;-73
2021/05/11 00:36:36;;;;;;;6.00;5.50;;;;;;;;;;5075407;28;20522;-73
2021/05/11 00:39:03;;;;;;;7.50;6.77;;;;;;;;;;5077209;28;20452;-73
2021/05/11 00:41:29;;;;;;;6.10;5.60;;;;;;;;;;5077423;28;20480;-73
2021/05/11 00:43:56;;;;;;;5.33;4.93;;;;;;;;;;5077517;28;20782;-73
2021/05/11 00:46:25;;;;;;;7.03;5.43;;;;;;;;;;5077060;28;20535;-73
2021/05/11 00:48:53;;;;;;;5.80;5.20;;;;;;;;;;5078088;28;20452;-73
2021/05/11 00:51:19;;;;;;;5.20;4.40;;;;;;;;;;5076973;28;20933;-73
2021/05/11 00:53:46;;;;;;;4.80;4.33;;;;;;;;;;5077286;28;20440;-73
2021/05/11 00:56:14;;;;;;;5.50;5.10;;;;;;;;;;5077168;28;20447;-72
2021/05/11 00:58:41;;;;;;;4.80;4.50;;;;;;;;;;5076975;28;20436;-72
2021/05/11 01:01:08;;;;;;;4.70;4.30;;;;;;;;;;5077048;28;20472;-73
2021/05/11 01:03:35;;;;;;;4.87;4.47;;;;;;;;;;5076653;28;20536;-73
2021/05/11 01:06:02;;;;;;;5.17;4.77;;;;;;;;;;5077377;28;20528;-72
2021/05/11 01:08:29;;;;;;;4.53;4.13;;;;;;;;;;5076468;28;20938;-72
2021/05/11 01:10:55;;;;;;;4.10;3.70;;;;;;;;;;5076880;28;20451;-73
2021/05/11 01:13:22;;;;;;;4.47;4.03;;;;;;;;;;5076471;28;20452;-73
2021/05/11 01:15:51;;;;;;;4.30;4.00;;;;;;;;;;5076979;28;20444;-73
2021/05/11 01:18:26;;;;;;;4.10;3.80;;;;;;;;;;5076089;28;20448;-72
2021/05/11 01:20:55;;;;;;;3.93;3.60;;;;;;;;;;5076029;28;20432;-72
2021/05/11 01:23:55;;;;;;;4.50;4.17;;;;;;;;;;5076324;28;20441;-73
2021/05/11 01:26:26;;;;;;;5.13;4.63;;;;;;;;;;5076382;28;20444;-73
2021/05/11 01:29:00;;;;;;;4.40;4.00;;;;;;;;;;5075915;28;20448;-73
2021/05/11 01:31:48;;;;;;;4.37;4.07;;;;;;;;;;5075867;28;20841;-73
2021/05/11 01:48:19;;;;;;;7.93;3.90;;;;;;;;;;4993547;28;20432;-73
2021/05/11 01:50:51;;;;;;;3.80;3.60;;;;;;;;;;5060387;28;20432;-73
2021/05/11 01:56:26;;;;;;;4.33;3.63;;;;;;;;;;5076568;28;20416;-73
2021/05/11 02:09:48;;;;;;;4.60;4.20;;;;;;;;;;5075732;28;20500;-73
2021/05/11 02:11:03;;;;;;;4.23;3.93;;;;;;;;;;5075341;28;20467;-73
2021/05/11 02:24:28;;;;;;;4.90;3.70;;;;;;;;;;5034060;28;20842;-73
2021/05/11 02:26:55;;;;;;;4.47;4.03;;;;;;;;;;5075577;28;20447;-73
2021/05/11 02:29:22;;;;;;;3.97;3.67;;;;;;;;;;5074712;28;20450;-73
2021/05/11 02:31:49;;;;;;;4.43;4.00;;;;;;;;;;5074797;28;20472;-73
2021/05/11 02:34:16;;;;;;;4.10;3.63;;;;;;;;;;5075836;28;20489;-73
2021/05/11 02:36:42;;;;;;;3.87;3.50;;;;;;;;;;5076532;28;20961;-73
2021/05/11 02:39:09;;;;;;;4.07;3.80;;;;;;;;;;5075572;28;20528;-73
2021/05/11 02:41:36;;;;;;;4.97;3.70;;;;;;;;;;5074418;28;20476;-73
2021/05/11 02:44:03;;;;;;;5.43;4.80;;;;;;;;;;5074683;28;20475;-73
2021/05/11 02:46:30;;;;;;;6.53;6.03;;;;;;;;;;5074361;28;20441;-73
2021/05/11 02:48:58;;;;;;;5.70;5.30;;;;;;;;;;5074669;28;20449;-73
2021/05/11 02:51:25;;;;;;;5.50;5.10;;;;;;;;;;5074658;28;20472;-73
2021/05/11 02:53:52;;;;;;;5.60;5.00;;;;;;;;;;5074334;28;20535;-73
2021/05/11 02:56:18;;;;;;;6.90;5.47;;;;;;;;;;5074708;28;20440;-73
2021/05/11 02:58:48;;;;;;;8.37;4.70;;;;;;;;;;5074517;28;20795;-72
2021/05/11 03:01:15;;;;;;;5.27;4.87;;;;;;;;;;5073467;28;20455;-73
2021/05/11 03:03:43;;;;;;;4.03;3.73;;;;;;;;;;5074742;28;20470;-73
2021/05/11 03:06:10;;;;;;;4.53;4.23;;;;;;;;;;5073888;28;20450;-73
2021/05/11 03:08:41;;;;;;;5.17;4.77;;;;;;;;;;5074476;28;20514;-72
2021/05/11 03:11:07;;;;;;;3.90;3.50;;;;;;;;;;5074351;28;20489;-72
2021/05/11 03:13:34;;;;;;;3.80;3.50;;;;;;;;;;5073788;28;20471;-72
2021/05/11 03:16:01;;;;;;;4.80;3.93;;;;;;;;;;5074257;28;20447;-73
2021/05/11 03:18:28;;;;;;;4.53;4.23;;;;;;;;;;5074391;28;20444;-73
2021/05/11 03:20:55;;;;;;;5.23;3.70;;;;;;;;;;5073715;28;20502;-73
2021/05/11 03:23:22;;;;;;;4.93;3.50;;;;;;;;;;5073973;28;20488;-73
2021/05/11 03:25:48;;;;;;;3.40;3.20;;;;;;;;;;5074376;28;20437;-73
2021/05/11 03:28:15;;;;;;;4.40;3.93;;;;;;;;;;5073943;28;20449;-73
2021/05/11 03:30:43;;;;;;;6.63;4.23;;;;;;;;;;5073906;28;20514;-72
2021/05/11 03:33:10;;;;;;;4.57;4.27;;;;;;;;;;5073880;28;20474;-73
2021/05/11 03:35:36;;;;;;;5.20;4.70;;;;;;;;;;5073490;28;20504;-73
2021/05/11 03:38:05;;;;;;;4.90;4.50;;;;;;;;;;5073393;28;21018;-72
2021/05/11 03:40:32;;;;;;;4.30;3.90;;;;;;;;;;5073694;28;20466;-72
2021/05/11 03:43:03;;;;;;;3.63;3.43;;;;;;;;;;5073297;28;20508;-73
2021/05/11 03:45:34;;;;;;;5.20;4.77;;;;;;;;;;5074448;28;20461;-73
2021/05/11 03:48:01;;;;;;;7.70;4.93;;;;;;;;;;5073957;28;20451;-73
2021/05/11 03:50:28;;;;;;;4.50;4.20;;;;;;;;;;5073462;28;20447;-73
2021/05/11 03:52:54;;;;;;;4.30;3.90;;;;;;;;;;5073610;28;20487;-73
2021/05/11 03:55:22;;;;;;;4.37;3.97;;;;;;;;;;5073187;28;20436;-73
2021/05/11 03:57:48;;;;;;;4.33;4.03;;;;;;;;;;5073593;28;20445;-73
2021/05/11 04:00:16;;;;;;;4.17;3.77;;;;;;;;;;5073803;28;20452;-72
2021/05/11 04:02:42;;;;;;;4.60;4.20;;;;;;;;;;5073098;28;21069;-72
2021/05/11 04:05:12;;;;;;;4.90;4.40;;;;;;;;;;5073152;28;20444;-72
2021/05/11 04:07:40;;;;;;;4.93;4.53;;;;;;;;;;5073108;28;20452;-72
2021/05/11 04:10:13;;;;;;;4.30;3.90;;;;;;;;;;5073280;28;20495;-72
2021/05/11 04:13:11;;;;;;;4.47;4.17;;;;;;;;;;5073332;28;20440;-73
2021/05/11 04:18:25;;;;;;;5.10;4.70;;;;;;;;;;5065871;28;20433;-73
2021/05/11 04:20:52;;;;;;;4.53;4.13;;;;;;;;;;5073368;28;20456;-73
2021/05/11 04:23:19;;;;;;;4.60;4.07;;;;;;;;;;5072871;28;20565;-73
2021/05/11 04:25:46;;;;;;;4.37;4.00;;;;;;;;;;5073534;28;20553;-73
2021/05/11 04:28:14;;;;;;;4.70;4.40;;;;;;;;;;5073169;28;20436;-73
2021/05/11 04:30:40;;;;;;;6.33;4.80;;;;;;;;;;5072717;28;20482;-72
2021/05/11 04:33:08;;;;;;;4.80;4.40;;;;;;;;;;5073546;28;20472;-73
2021/05/11 04:35:34;;;;;;;5.13;4.67;;;;;;;;;;5072424;28;20490;-73
2021/05/11 04:38:03;;;;;;;5.87;4.80;;;;;;;;;;5072882;28;20449;-73
2021/05/11 04:40:30;;;;;;;4.47;4.17;;;;;;;;;;5072910;28;20440;-73
2021/05/11 04:42:57;;;;;;;5.30;4.60;;;;;;;;;;5072922;28;20475;-73
2021/05/11 04:45:26;;;;;;;5.10;4.70;;;;;;;;;;5072970;28;20451;-72
2021/05/11 04:47:54;;;;;;;5.80;4.57;;;;;;;;;;5072697;28;21065;-73
2021/05/11 04:50:21;;;;;;;5.50;4.47;;;;;;;;;;5072519;28;20455;-73
2021/05/11 04:52:48;;;;;;;5.30;4.90;;;;;;;;;;5072589;28;20505;-73
2021/05/11 04:55:16;;;;;;;6.70;6.20;;;;;;;;;;5072763;28;20476;-73
2021/05/11 04:57:43;;;;;;;7.70;6.93;;;;;;;;;;5072576;28;20448;-72
2021/05/11 05:00:11;;;;;;;7.20;6.50;;;;;;;;;;5073261;28;20448;-73
2021/05/11 05:02:41;;;;;;;6.97;6.27;;;;;;;;;;5072688;28;20468;-71
2021/05/11 05:05:08;;;;;;;8.00;7.30;;;;;;;;;;5073178;28;20451;-72
2021/05/11 05:07:36;;;;;;;9.77;6.70;;;;;;;;;;5052774;28;20441;-72
2021/05/11 05:10:03;;;;;;;6.30;5.70;;;;;;;;;;5052585;28;20472;-72
2021/05/11 05:12:30;;;;;;;6.57;5.20;;;;;;;;;;5052569;28;20476;-72
2021/05/11 05:14:57;;;;;;;6.07;5.47;;;;;;;;;;5052518;28;20445;-72
2021/05/11 05:17:24;;;;;;;6.27;5.73;;;;;;;;;;5053086;28;20469;-72
2021/05/11 05:19:51;;;;;;;5.80;5.20;;;;;;;;;;5052955;28;20441;-72
2021/05/11 05:22:18;;;;;;;5.00;4.43;;;;;;;;;;5066695;28;20472;-74
2021/05/11 05:24:47;;;;;;;5.97;5.47;;;;;;;;;;5080800;28;20440;-73
2021/05/11 05:27:19;;;;;;;6.70;6.20;;;;;;;;;;5075502;28;20997;-73
2021/05/11 05:29:46;;;;;;;70.90;43.67;;;;;;;;;;5076046;28;20483;-72
2021/05/11 05:32:12;;;;;;;7.90;5.80;;;;;;;;;;5076353;28;20765;-73
2021/05/11 05:34:40;;;;;;;7.80;5.40;;;;;;;;;;5076263;28;20437;-73
2021/05/11 05:37:08;;;;;;;5.17;4.77;;;;;;;;;;5076334;28;20942;-74
2021/05/11 05:39:38;;;;;;;6.63;5.13;;;;;;;;;;5076198;28;20476;-73
2021/05/11 05:42:05;;;;;;;7.10;5.53;;;;;;;;;;5075900;28;20476;-72
2021/05/11 05:44:32;;;;;;;6.80;6.10;;;;;;;;;;5076180;28;20648;-73
2021/05/11 05:46:59;;;;;;;5.90;5.40;;;;;;;;;;5075873;28;20962;-73
2021/05/11 05:49:29;;;;;;;5.63;4.97;;;;;;;;;;5075737;28;20436;-74
2021/05/11 05:52:01;;;;;;;6.00;5.53;;;;;;;;;;5075700;28;20486;-74
2021/05/11 05:54:29;;;;;;;9.30;5.93;;;;;;;;;;5076034;28;20923;-74
2021/05/11 05:56:56;;;;;;;5.53;5.07;;;;;;;;;;5075831;28;20507;-73
2021/05/11 05:59:23;;;;;;;5.90;5.20;;;;;;;;;;5075408;28;20485;-74
2021/05/11 06:01:52;;;;;;;6.80;5.97;;;;;;;;;;5075927;28;20909;-74
2021/05/11 06:04:20;;;;;;;6.17;5.67;;;;;;;;;;5075558;28;20531;-74
2021/05/11 06:06:48;;;;;;;6.37;5.83;;;;;;;;;;5075890;28;20813;-74
2021/05/11 06:09:17;;;;;;;5.60;5.20;;;;;;;;;;5075430;28;20436;-74
2021/05/11 06:11:47;;;;;;;6.47;5.87;;;;;;;;;;5075614;28;20446;-74
2021/05/11 06:14:19;;;;;;;5.97;5.57;;;;;;;;;;5076349;28;20441;-73
2021/05/11 06:17:13;;;;;;;5.83;5.23;;;;;;;;;;5076255;28;20511;-74
2021/05/11 06:19:40;;;;;;;6.10;5.07;;;;;;;;;;5076170;28;20619;-74
2021/05/11 06:22:07;;;;;;;5.70;4.50;;;;;;;;;;5075711;28;20487;-74
2021/05/11 06:24:33;;;;;;;5.70;5.07;;;;;;;;;;5075009;28;20540;-74
2021/05/11 06:27:01;;;;;;;5.97;5.47;;;;;;;;;;5075723;28;20441;-74
2021/05/11 06:29:30;;;;;;;5.80;5.37;;;;;;;;;;5074747;28;21076;-74
2021/05/11 06:31:57;;;;;;;5.07;4.67;;;;;;;;;;5075292;28;20535;-74
2021/05/11 06:34:23;;;;;;;12.87;9.43;;;;;;;;;;5074375;28;20540;-74
2021/05/11 06:36:50;;;;;;;5.87;5.20;;;;;;;;;;5074846;28;20856;-74
2021/05/11 06:39:17;;;;;;;5.47;5.03;;;;;;;;;;5074977;28;20437;-74
2021/05/11 06:41:55;;;;;;;6.03;5.43;;;;;;;;;;5075129;28;20504;-74
2021/05/11 06:44:30;;;;;;;9.40;5.43;;;;;;;;;;5075833;28;20928;-74
2021/05/11 06:47:20;;;;;;;6.10;5.60;;;;;;;;;;5075327;28;20468;-74
2021/05/11 06:50:09;;;;;;;6.17;5.77;;;;;;;;;;5074784;28;20451;-74
2021/05/11 06:52:45;;;;;;;6.87;6.27;;;;;;;;;;5075109;28;20921;-74
2021/05/11 06:55:15;;;;;;;5.17;4.73;;;;;;;;;;5074962;28;20452;-74
2021/05/11 06:57:41;;;;;;;6.80;6.30;;;;;;;;;;5074945;28;20437;-74
2021/05/11 07:00:10;;;;;;;6.50;6.00;;;;;;;;;;5074864;28;20515;-74
2021/05/11 07:02:37;;;;;;;7.47;6.80;;;;;;;;;;5074335;28;20484;-74
2021/05/11 07:05:04;;;;;;;7.93;7.10;;;;;;;;;;5074400;28;20472;-73
2021/05/11 07:07:32;;;;;;;7.27;6.57;;;;;;;;;;5074344;28;20442;-74
2021/05/11 07:10:06;;;;;;;9.70;8.80;;;;;;;;;;5074672;28;20442;-73
2021/05/11 07:15:21;;;;;;;9.47;8.17;;;;;;;;;;5074399;28;20400;-74
2021/05/11 07:17:47;;;;;;;9.43;8.00;;;;;;;;;;5074169;28;20444;-75
2021/05/11 07:20:14;;;;;;;8.47;7.67;;;;;;;;;;5074173;28;20440;-74
2021/05/11 07:22:41;;;;;;;9.63;7.50;;;;;;;;;;5073707;28;20571;-74
2021/05/11 07:25:11;;;;;;;7.60;6.77;;;;;;;;;;5074077;28;20474;-74
2021/05/11 07:27:59;;;;;;;5.97;5.37;;;;;;;;;;5073872;28;20878;-74
2021/05/11 07:30:29;;;;;;;6.47;5.93;;;;;;;;;;5073904;28;20495;-74
2021/05/11 07:32:56;;;;;;;41.70;15.50;;;;;;;;;;5073653;28;20449;-72
2021/05/11 07:35:23;;;;;;;6.43;5.83;;;;;;;;;;5073991;28;20487;-74
2021/05/11 07:37:50;;;;;;;5.60;5.20;;;;;;;;;;5073563;28;20978;-73
2021/05/11 07:40:17;;;;;;;6.27;5.70;;;;;;;;;;5074347;28;20451;-74
2021/05/11 07:42:44;;;;;;;5.30;4.90;;;;;;;;;;5073387;28;20512;-74
2021/05/11 07:45:15;;;;;;;4.83;4.43;;;;;;;;;;5073265;28;20939;-78
2021/05/11 07:48:09;;;;;;;5.33;4.83;;;;;;;;;;5073251;28;20440;-75
2021/05/11 07:50:52;;;;;;;5.33;4.83;;;;;;;;;;5073818;28;21008;-74
2021/05/11 08:02:01;;;;;;;3.60;3.40;;;;;;;;;;5073418;28;20403;-74
2021/05/11 08:04:34;;;;;;;5.07;4.53;;;;;;;;;;5073597;28;20471;-74
2021/05/11 08:15:25;;;;;;;4.70;3.50;;;;;;;;;;5073200;28;20412;-73
2021/05/11 08:17:57;;;;;;;3.30;2.93;;;;;;;;;;5073480;28;20444;-74
2021/05/11 08:23:31;;;;;;;3.67;3.30;;;;;;;;;;4998321;28;20472;-74
2021/05/11 08:28:43;;;;;;;3.50;3.20;;;;;;;;;;5073032;28;20447;-74
2021/05/11 08:31:11;;;;;;;2.73;2.53;;;;;;;;;;5073364;28;20480;-74
2021/05/11 08:33:37;;;;;;;3.20;3.00;;;;;;;;;;5073110;28;20444;-74
2021/05/11 08:36:06;;;;;;;3.53;3.27;;;;;;;;;;5073463;28;20918;-74
2021/05/11 08:38:33;;;;;;;3.40;3.10;;;;;;;;;;5073893;28;20830;-74
2021/05/11 08:40:59;;;;;;;3.20;2.90;;;;;;;;;;5073320;28;20442;-74
2021/05/11 08:43:30;;;;;;;2.53;2.33;;;;;;;;;;5072601;28;20573;-74
2021/05/11 08:45:57;;;;;;;3.53;3.33;;;;;;;;;;5073254;28;20436;-75
2021/05/11 08:48:24;;;;;;;4.13;3.00;;;;;;;;;;5073475;28;20533;-74
2021/05/11 08:50:56;;;;;;;3.63;2.70;;;;;;;;;;5074306;28;20523;-74
2021/05/11 09:04:41;;;;;;;2.60;2.40;;;;;;;;;;5076881;28;20448;-74
2021/05/11 09:24:22;;;;;;;2.20;2.10;;;;;;;;;;5076440;28;20895;-75
2021/05/11 09:26:54;;;;;;;3.00;2.80;;;;;;;;;;5076686;28;20429;-74
2021/05/11 09:29:33;;;;;;;2.93;2.43;;;;;;;;;;5076646;28;20489;-74
2021/05/11 09:32:15;;;;;;;2.80;2.60;;;;;;;;;;5076081;28;20425;-74
2021/05/11 09:34:55;;;;;;;2.63;2.30;;;;;;;;;;5076803;28;20428;-75
2021/05/11 09:52:11;;;;;;;2.77;2.53;;;;;;;;;;5076234;28;20460;-75
2021/05/11 09:54:43;;;;;;;2.97;2.77;;;;;;;;;;5075983;28;20449;-75
2021/05/11 09:57:20;;;;;;;16.10;6.60;;;;;;;;;;5076303;28;20991;-74
2021/05/11 10:42:15;;;;;;;3.20;2.90;;;;;;;;;;5067705;28;20425;-74
2021/05/11 10:47:58;;;;;;;2.90;2.67;;;;;;;;;;5056966;28;20508;-76
2021/05/11 10:50:45;;;;;;;3.03;2.83;;;;;;;;;;5074662;28;20451;-75
2021/05/11 10:53:30;;;;;;;7.23;2.53;;;;;;;;;;5074706;28;20472;-74
2021/05/11 10:56:17;;;;;;;4.90;3.63;;;;;;;;;;5074373;28;20523;-75
2021/05/11 10:59:05;;;;;;;3.40;3.00;;;;;;;;;;5074169;28;20444;-74
2021/05/11 11:01:36;;;;;;;3.70;3.40;;;;;;;;;;5074315;28;20526;-75
2021/05/11 11:04:13;;;;;;;2.63;2.40;;;;;;;;;;5074154;28;21011;-74
2021/05/11 11:06:58;;;;;;;3.50;3.20;;;;;;;;;;5074372;28;20464;-75
2021/05/11 11:09:26;;;;;;;3.03;2.83;;;;;;;;;;5074527;28;20437;-74
2021/05/11 11:11:53;;;;;;;3.43;3.13;;;;;;;;;;5074024;28;20940;-75
2021/05/11 11:14:20;;;;;;;3.97;2.83;;;;;;;;;;5074069;28;20437;-75
2021/05/11 11:16:48;;;;;;;3.20;2.90;;;;;;;;;;5074556;28;20459;-75
2021/05/11 11:19:16;;;;;;;3.03;2.70;;;;;;;;;;5074050;28;20476;-74
2021/05/11 11:21:59;;;;;;;3.30;3.00;;;;;;;;;;5073633;28;20528;-75
2021/05/11 11:24:26;;;;;;;5.00;2.83;;;;;;;;;;5074037;28;20442;-74
2021/05/11 11:26:54;;;;;;;7.00;2.70;;;;;;;;;;5074323;28;20457;-74
2021/05/11 11:29:21;;;;;;;2.93;2.60;;;;;;;;;;5074840;28;20455;-74
2021/05/11 11:31:48;;;;;;;2.70;2.37;;;;;;;;;;5074415;28;20435;-74
2021/05/11 11:34:16;;;;;;;2.87;2.67;;;;;;;;;;5074122;28;20440;-77
2021/05/11 11:36:45;;;;;;;4.30;2.50;;;;;;;;;;5073907;28;20525;-75
2021/05/11 11:39:17;;;;;;;3.60;3.40;;;;;;;;;;5073858;28;20468;-75
2021/05/11 11:41:45;;;;;;;3.67;3.47;;;;;;;;;;5074339;28;20504;-76
2021/05/11 11:44:15;;;;;;;3.40;3.20;;;;;;;;;;5073392;28;20480;-75
2021/05/11 11:46:42;;;;;;;3.47;3.17;;;;;;;;;;5073675;28;20486;-76
2021/05/11 11:49:16;;;;;;;3.63;3.37;;;;;;;;;;5073599;28;20919;-74
2021/05/11 11:51:43;;;;;;;4.53;4.20;;;;;;;;;;5073648;28;20433;-75
2021/05/11 11:54:20;;;;;;;3.87;3.50;;;;;;;;;;5073756;28;20531;-74
2021/05/11 11:59:32;;;;;;;4.70;4.30;;;;;;;;;;5073453;28;20438;-74
2021/05/11 12:02:00;;;;;;;4.23;3.93;;;;;;;;;;5073041;28;20958;-75
2021/05/11 12:04:28;;;;;;;3.90;3.10;;;;;;;;;;5073828;28;20524;-76
2021/05/11 12:07:02;;;;;;;4.17;3.77;;;;;;;;;;5073441;28;20443;-75
2021/05/11 12:09:29;;;;;;;3.73;3.43;;;;;;;;;;5073360;28;20433;-76
2021/05/11 12:11:59;;;;;;;4.00;3.40;;;;;;;;;;5072890;28;20945;-75
2021/05/11 12:14:26;;;;;;;3.40;3.17;;;;;;;;;;5073572;28;20434;-77
2021/05/11 12:16:53;;;;;;;5.93;3.40;;;;;;;;;;5073550;28;20444;-76
2021/05/11 12:19:22;;;;;;;5.00;3.87;;;;;;;;;;5073340;28;20498;-75
2021/05/11 12:21:50;;;;;;;5.37;4.20;;;;;;;;;;5073853;28;20494;-75
2021/05/11 12:24:17;;;;;;;6.80;4.17;;;;;;;;;;5072821;28;20901;-76
2021/05/11 12:26:45;;;;;;;4.70;4.30;;;;;;;;;;5073675;28;20476;-75
2021/05/11 12:29:13;;;;;;;5.20;4.70;;;;;;;;;;5072880;28;20456;-76
2021/05/11 12:31:41;;;;;;;4.90;4.00;;;;;;;;;;5072780;28;20425;-75
2021/05/11 12:34:09;;;;;;;5.27;4.33;;;;;;;;;;5073381;28;20445;-75
2021/05/11 12:36:48;;;;;;;6.13;4.97;;;;;;;;;;5073109;28;20480;-75
2021/05/11 12:39:16;;;;;;;5.80;5.40;;;;;;;;;;5072758;28;20948;-74
2021/05/11 12:41:43;;;;;;;7.00;5.67;;;;;;;;;;5073457;28;20454;-76
2021/05/11 12:44:26;;;;;;;6.07;5.63;;;;;;;;;;5072870;28;20480;-75
2021/05/11 12:46:59;;;;;;;9.57;8.57;;;;;;;;;;5072861;28;20433;-84
2021/05/11 12:49:28;;;;;;;7.47;6.70;;;;;;;;;;5074150;28;20959;-85
2021/05/11 12:51:56;;;;;;;7.00;6.40;;;;;;;;;;5072652;28;20447;-81
2021/05/11 12:54:24;;;;;;;6.33;5.83;;;;;;;;;;5072690;28;20502;-80
2021/05/11 12:57:04;;;;;;;6.80;6.30;;;;;;;;;;5072604;28;20445;-80
2021/05/11 12:59:36;;;;;;;5.87;5.40;;;;;;;;;;5073165;28;20451;-82
2021/05/11 13:02:10;;;;;;;7.40;5.60;;;;;;;;;;5073847;28;20433;-83
2021/05/11 13:16:14;;;;;;;6.07;5.67;;;;;;;;;;5072647;28;20431;-83
2021/05/11 13:21:51;;;;;;;6.00;5.40;;;;;;;;;;5074324;28;20443;-82
2021/05/11 13:27:18;;;;;;;5.80;5.40;;;;;;;;;;5082053;28;20455;-81
2021/05/11 13:29:55;;;;;;;5.73;5.30;;;;;;;;;;5075063;28;20472;-83
2021/05/11 13:32:27;;;;;;;6.23;5.57;;;;;;;;;;5072808;28;20443;-81
2021/05/11 13:34:55;;;;;;;5.80;5.30;;;;;;;;;;5072500;28;20417;-80
2021/05/11 13:37:27;;;;;;;5.03;4.63;;;;;;;;;;5072284;28;21053;-83
2021/05/11 13:39:54;;;;;;;7.67;5.13;;;;;;;;;;5072500;28;20437;-82
2021/05/11 13:42:21;;;;;;;5.07;4.67;;;;;;;;;;5074043;28;20559;-82
2021/05/11 13:44:48;;;;;;;5.50;5.10;;;;;;;;;;5075699;28;20451;-85
2021/05/11 13:47:16;;;;;;;5.83;5.37;;;;;;;;;;5084947;28;20459;-81
2021/05/11 13:49:43;;;;;;;6.30;5.80;;;;;;;;;;5078477;28;20437;-83
2021/05/11 13:52:11;;;;;;;6.30;5.80;;;;;;;;;;5080141;28;20456;-85
2021/05/11 13:54:38;;;;;;;5.60;5.10;;;;;;;;;;5077750;28;20527;-82
2021/05/11 13:57:18;;;;;;;5.30;4.87;;;;;;;;;;5075752;28;20441;-81
2021/05/11 14:02:42;;;;;;;5.90;5.30;;;;;;;;;;5077540;28;20479;-81
2021/05/11 14:05:09;;;;;;;5.87;5.37;;;;;;;;;;5075394;28;20459;-82
2021/05/11 14:07:37;;;;;;;6.00;5.40;;;;;;;;;;5075456;28;21016;-85
2021/05/11 14:10:04;;;;;;;5.70;4.93;;;;;;;;;;5075743;28;20450;-85
2021/05/11 14:12:31;;;;;;;6.13;5.63;;;;;;;;;;5075872;28;20503;-83
2021/05/11 14:14:57;;;;;;;6.73;6.13;;;;;;;;;;5075675;28;20972;-83
2021/05/11 14:17:36;;;;;;;6.10;5.60;;;;;;;;;;5078756;28;20535;-81
2021/05/11 14:20:03;;;;;;;6.03;5.53;;;;;;;;;;5075421;28;20543;-81
2021/05/11 14:22:30;;;;;;;7.00;6.40;;;;;;;;;;5075314;28;20499;-80
2021/05/11 14:24:58;;;;;;;7.67;7.03;;;;;;;;;;5075175;28;20978;-80
2021/05/11 14:27:30;;;;;;;7.37;6.77;;;;;;;;;;5075537;28;20463;-79
2021/05/11 14:29:56;;;;;;;7.97;7.20;;;;;;;;;;5074698;28;20468;-80
2021/05/11 14:32:23;;;;;;;7.50;6.80;;;;;;;;;;5075139;28;20523;-83
2021/05/11 14:34:50;;;;;;;8.73;7.97;;;;;;;;;;5075366;28;20539;-78
2021/05/11 14:37:17;;;;;;;7.80;7.20;;;;;;;;;;5075848;28;20531;-82
2021/05/11 14:39:43;;;;;;;8.10;7.40;;;;;;;;;;5075785;28;20452;-82
2021/05/11 14:42:11;;;;;;;7.43;6.30;;;;;;;;;;5075284;28;20552;-81
2021/05/11 14:44:38;;;;;;;7.20;6.60;;;;;;;;;;5075028;28;20440;-83
2021/05/11 14:47:05;;;;;;;7.23;6.50;;;;;;;;;;5075860;28;20437;-83
2021/05/11 14:49:33;;;;;;;7.50;6.90;;;;;;;;;;5074838;28;20441;-87
2021/05/11 14:51:59;;;;;;;8.27;7.40;;;;;;;;;;5073937;28;20460;-84
2021/05/11 14:54:26;;;;;;;8.33;7.63;;;;;;;;;;5077861;28;20541;-87
2021/05/11 14:56:53;;;;;;;10.10;9.10;;;;;;;;;;5083596;28;20958;-85
2021/05/11 14:59:21;;;;;;;8.50;7.60;;;;;;;;;;5080794;28;20477;-88
2021/05/11 15:01:48;;;;;;;8.70;7.93;;;;;;;;;;5078908;28;20460;-86
2021/05/11 15:04:15;;;;;;;10.53;9.43;;;;;;;;;;5078356;28;20563;-88
2021/05/11 15:06:41;;;;;;;6.90;6.30;;;;;;;;;;5079869;28;20429;-90
2021/05/11 15:09:08;;;;;;;7.77;7.17;;;;;;;;;;5083294;28;20868;-84
2021/05/11 15:11:37;;;;;;;8.80;7.00;;;;;;;;;;5078454;28;20805;-85
2021/05/11 15:14:05;;;;;;;7.87;7.13;;;;;;;;;;5076651;28;20518;-85
2021/05/11 15:16:37;;;;;;;7.67;6.97;;;;;;;;;;5075766;28;20446;-88
2021/05/11 15:19:04;;;;;;;8.37;7.57;;;;;;;;;;5079312;28;20429;-87
2021/05/11 15:21:31;;;;;;;8.07;6.93;;;;;;;;;;5077745;28;20612;-83
2021/05/11 15:23:59;;;;;;;7.37;6.77;;;;;;;;;;5080060;28;20499;-88
2021/05/11 15:26:30;;;;;;;7.97;7.27;;;;;;;;;;5079065;28;20479;-83
2021/05/11 15:28:56;;;;;;;7.20;6.60;;;;;;;;;;5074747;28;20527;-83
2021/05/11 15:31:23;;;;;;;8.10;7.40;;;;;;;;;;5081980;28;20474;-86
2021/05/11 15:33:55;;;;;;;8.97;7.73;;;;;;;;;;5081334;28;20445;-85
2021/05/11 15:36:22;;;;;;;8.07;7.30;;;;;;;;;;5078526;28;20428;-84
2021/05/11 15:38:49;;;;;;;6.90;6.30;;;;;;;;;;5077443;28;20437;-84
2021/05/11 15:41:16;;;;;;;7.50;6.90;;;;;;;;;;5075440;28;20450;-84
2021/05/11 15:43:43;;;;;;;9.00;8.20;;;;;;;;;;5081285;28;20527;-85
2021/05/11 15:46:09;;;;;;;7.90;7.13;;;;;;;;;;5079877;28;20476;-86
2021/05/11 15:48:36;;;;;;;8.53;7.57;;;;;;;;;;5077944;28;20441;-83
2021/05/11 15:51:04;;;;;;;8.73;7.83;;;;;;;;;;5074240;28;20444;-85
2021/05/11 15:53:31;;;;;;;9.00;8.10;;;;;;;;;;5079090;28;20451;-86
2021/05/11 15:55:58;;;;;;;8.67;7.97;;;;;;;;;;5080393;28;20550;-86
2021/05/11 15:58:25;;;;;;;8.00;7.30;;;;;;;;;;5077418;28;20444;-86
2021/05/11 16:00:53;;;;;;;9.17;8.27;;;;;;;;;;5082795;28;20451;-85
2021/05/11 16:03:20;;;;;;;8.20;7.50;;;;;;;;;;5079187;28;20476;-85
2021/05/11 16:05:48;;;;;;;8.90;8.10;;;;;;;;;;5081371;28;20436;-87
2021/05/11 16:08:17;;;;;;;9.00;8.20;;;;;;;;;;5078064;28;20558;-83
2021/05/11 16:10:44;;;;;;;9.73;8.77;;;;;;;;;;5073615;28;20476;-84
2021/05/11 16:13:11;;;;;;;9.37;8.47;;;;;;;;;;5074303;28;20490;-84
2021/05/11 16:15:39;;;;;;;8.67;7.13;;;;;;;;;;5074190;28;20447;-84
2021/05/11 16:18:06;;;;;;;8.17;7.47;;;;;;;;;;5073586;28;20899;-73
2021/05/11 16:20:32;;;;;;;9.00;8.20;;;;;;;;;;5077030;28;20436;-85
2021/05/11 16:22:59;;;;;;;9.00;8.20;;;;;;;;;;5088117;28;20495;-86
2021/05/11 16:25:27;;;;;;;9.53;8.73;;;;;;;;;;5094539;28;20441;-86
2021/05/11 16:27:54;;;;;;;8.30;7.57;;;;;;;;;;5088308;28;20469;-86
2021/05/11 16:30:21;;;;;;;21.70;15.80;;;;;;;;;;5086124;28;20477;-86
2021/05/11 16:32:49;;;;;;;24.90;18.57;;;;;;;;;;5082040;28;20444;-86
2021/05/11 16:35:16;;;;;;;11.03;9.50;;;;;;;;;;5076484;28;20437;-88
2021/05/11 16:37:43;;;;;;;10.13;9.33;;;;;;;;;;5081947;28;20436;-87
2021/05/11 16:40:12;;;;;;;11.23;10.23;;;;;;;;;;5090484;28;20511;-87
2021/05/11 16:42:40;;;;;;;9.70;8.90;;;;;;;;;;5078430;28;20582;-87
2021/05/11 16:45:09;;;;;;;8.90;8.10;;;;;;;;;;5074960;28;20520;-88
2021/05/11 16:47:36;;;;;;;10.10;9.10;;;;;;;;;;5074593;28;20807;-88
2021/05/11 16:50:03;;;;;;;9.83;8.90;;;;;;;;;;5074068;28;20452;-87
2021/05/11 16:52:30;;;;;;;10.77;9.80;;;;;;;;;;5076183;28;20486;-87
2021/05/11 16:54:57;;;;;;;12.13;10.93;;;;;;;;;;5075533;28;20813;-87
2021/05/11 16:57:23;;;;;;;12.43;11.33;;;;;;;;;;5075111;28;20487;-88
2021/05/11 16:59:51;;;;;;;10.87;9.83;;;;;;;;;;5073877;28;20516;-88
2021/05/11 17:02:18;;;;;;;10.00;9.03;;;;;;;;;;5074481;28;20517;-87
2021/05/11 17:04:44;;;;;;;9.00;8.20;;;;;;;;;;5073892;28;20553;-88
2021/05/11 17:07:11;;;;;;;10.37;9.47;;;;;;;;;;5074025;28;20801;-87
2021/05/11 17:09:38;;;;;;;13.73;12.50;;;;;;;;;;5074648;28;20967;-88
2021/05/11 17:12:05;;;;;;;11.20;10.20;;;;;;;;;;5073947;28;20472;-87
2021/05/11 17:14:32;;;;;;;9.77;8.87;;;;;;;;;;5074780;28;20538;-88
2021/05/11 17:16:59;;;;;;;12.23;11.13;;;;;;;;;;5081926;28;20444;-87
2021/05/11 17:19:26;;;;;;;11.70;10.50;;;;;;;;;;5083907;28;20448;-88
2021/05/11 17:21:53;;;;;;;12.80;11.63;;;;;;;;;;5078803;28;20442;-87
2021/05/11 17:24:20;;;;;;;24.50;22.20;;;;;;;;;;5077769;28;20472;-87
2021/05/11 17:26:46;;;;;;;17.73;16.00;;;;;;;;;;5077548;28;20936;-87
2021/05/11 17:29:17;;;;;;;13.87;12.57;;;;;;;;;;5077343;28;20491;-88
2021/05/11 17:31:43;;;;;;;11.10;10.10;;;;;;;;;;5078840;28;20867;-85
2021/05/11 17:34:12;;;;;;;10.73;9.73;;;;;;;;;;5078471;28;20943;-85
2021/05/11 17:36:39;;;;;;;10.00;9.10;;;;;;;;;;5078061;28;20437;-85
2021/05/11 17:39:06;;;;;;;12.23;11.03;;;;;;;;;;5078116;28;20658;-80
2021/05/11 17:41:33;;;;;;;11.23;10.13;;;;;;;;;;5077295;28;20527;-81
2021/05/11 17:43:59;;;;;;;9.67;8.90;;;;;;;;;;5077272;28;20529;-81
2021/05/11 17:46:26;;;;;;;11.43;10.43;;;;;;;;;;5076376;28;20539;-82
2021/05/11 17:48:55;;;;;;;11.07;10.10;;;;;;;;;;5075770;28;20951;-82
2021/05/11 17:51:27;;;;;;;10.87;9.97;;;;;;;;;;5075973;28;20464;-82